Time;durP1;ratioP1;P1;durP2;ratioP2;P2;SDS_P1;SDS_P2;PMS_P1;PMS_P2;Temp;Humidity;BMP_temperature;BMP_pressure;BME280_temperature;BME280_humidity;BME280_pressure;Samples;Min_cycle;Max_cycle;Signal;HPM_P1;HPM_P2
2024/02/19 00:01:59;;;;;;;2.73;2.53;;;;;;;19.42;52.08;98213.00;4999468;28;20265;-25
2024/02/19 00:04:26;;;;;;;2.80;2.60;;;;;;;19.42;52.35;98215.56;5003663;28;20195;-25
2024/02/19 00:06:53;;;;;;;2.40;2.20;;;;;;;19.41;52.29;98214.66;5004508;28;20202;-25
2024/02/19 00:09:19;;;;;;;2.70;2.50;;;;;;;19.41;52.16;98213.78;5001007;28;20255;-26
2024/02/19 00:11:46;;;;;;;3.07;2.83;;;;;;;19.39;52.20;98211.16;5006337;28;20229;-25
2024/02/19 00:14:13;;;;;;;2.83;2.63;;;;;;;19.41;52.41;98214.66;4988657;28;20694;-25
2024/02/19 00:16:40;;;;;;;2.60;2.40;;;;;;;19.40;52.66;98215.47;5001676;28;20218;-26
2024/02/19 00:19:10;;;;;;;2.47;2.27;;;;;;;19.39;52.29;98211.16;5003314;28;20304;-26
2024/02/19 00:21:37;;;;;;;2.70;2.50;;;;;;;19.40;52.01;98206.94;4994599;28;20203;-25
2024/02/19 00:24:04;;;;;;;2.50;2.30;;;;;;;19.41;52.32;98211.22;5008486;28;20219;-25
2024/02/19 00:26:31;;;;;;;2.60;2.40;;;;;;;19.42;52.11;98213.00;4999926;28;20207;-25
2024/02/19 00:28:57;;;;;;;2.63;2.43;;;;;;;19.41;52.50;98212.13;5004450;28;20290;-25
2024/02/19 00:31:24;;;;;;;2.90;2.70;;;;;;;19.43;52.49;98219.84;4995108;28;20210;-25
2024/02/19 00:33:51;;;;;;;2.50;2.30;;;;;;;19.36;52.14;98202.50;5019193;28;20656;-26
2024/02/19 00:36:19;;;;;;;2.50;2.30;;;;;;;19.43;52.15;98219.84;4996354;28;20206;-26
2024/02/19 00:38:46;;;;;;;2.73;2.53;;;;;;;19.42;52.18;98213.84;5002100;28;20294;-25
2024/02/19 00:41:13;;;;;;;2.87;2.60;;;;;;;19.42;52.17;98218.09;5009320;28;20580;-25
2024/02/19 00:43:39;;;;;;;2.80;2.60;;;;;;;19.41;52.21;98217.22;4998123;28;20249;-25
2024/02/19 00:46:06;;;;;;;2.70;2.50;;;;;;;19.42;52.26;98216.41;5002052;28;20237;-26
2024/02/19 00:48:33;;;;;;;2.60;2.40;;;;;;;19.41;52.38;98214.66;4998640;28;20736;-25
2024/02/19 00:51:03;;;;;;;2.63;2.43;;;;;;;19.42;52.29;98216.41;5005283;28;20286;-25
2024/02/19 00:53:29;;;;;;;2.70;2.50;;;;;;;19.39;52.59;98223.91;5000658;28;20571;-25
2024/02/19 00:55:56;;;;;;;2.60;2.40;;;;;;;19.41;51.85;98218.88;5008089;28;20641;-25
2024/02/19 00:58:22;;;;;;;2.63;2.43;;;;;;;19.40;52.30;98225.66;4999266;28;20207;-25
2024/02/19 01:00:49;;;;;;;2.60;2.40;;;;;;;19.38;52.44;98224.72;5010282;28;20238;-25
2024/02/19 01:03:16;;;;;;;2.90;2.70;;;;;;;19.41;52.55;98229.06;5001792;28;20757;-25
2024/02/19 01:05:43;;;;;;;2.87;2.67;;;;;;;19.42;52.18;98230.84;5010194;28;20288;-25
2024/02/19 01:08:10;;;;;;;2.27;2.17;;;;;;;19.43;52.28;98235.13;5002901;28;20210;-25
2024/02/19 01:10:36;;;;;;;2.80;2.60;;;;;;;19.44;52.18;98240.31;5007060;28;20234;-26
2024/02/19 01:13:03;;;;;;;2.77;2.57;;;;;;;19.43;52.11;98233.47;5005762;28;20326;-25
2024/02/19 01:15:30;;;;;;;2.83;2.63;;;;;;;19.43;51.87;98238.56;5001798;28;20225;-25
2024/02/19 01:17:58;;;;;;;2.80;2.60;;;;;;;19.44;52.27;98232.66;4982669;28;20203;-25
2024/02/19 01:20:24;;;;;;;2.73;2.53;;;;;;;19.44;51.97;98231.78;5000466;28;20206;-25
2024/02/19 01:22:51;;;;;;;2.57;2.37;;;;;;;19.42;52.18;98228.28;4996215;28;20254;-25
2024/02/19 01:25:20;;;;;;;2.80;2.60;;;;;;;19.42;52.21;98228.28;5003908;28;20198;-25
2024/02/19 01:27:47;;;;;;;2.70;2.50;;;;;;;19.35;52.39;98216.03;5005164;28;20580;-25
2024/02/19 01:30:14;;;;;;;2.80;2.60;;;;;;;19.42;52.20;98228.28;4998053;28;20210;-26
2024/02/19 01:32:40;;;;;;;2.80;2.60;;;;;;;19.42;52.30;98224.03;5002661;28;20237;-25
2024/02/19 01:35:10;;;;;;;2.57;2.30;;;;;;;19.41;52.35;98232.50;5000900;28;20226;-25
2024/02/19 01:37:36;;;;;;;2.43;2.23;;;;;;;19.40;52.31;98227.34;4991701;28;20227;-25
2024/02/19 01:40:09;;;;;;;2.60;2.40;;;;;;;19.40;52.27;98228.22;4995070;28;20200;-26
2024/02/19 01:42:36;;;;;;;2.67;2.47;;;;;;;19.41;52.11;98239.25;4996680;28;20229;-26
2024/02/19 01:45:05;;;;;;;2.37;2.23;;;;;;;19.41;52.36;98237.59;5004940;28;20245;-26
2024/02/19 01:47:31;;;;;;;2.67;2.47;;;;;;;19.41;52.39;98229.97;4997461;28;20225;-25
2024/02/19 01:49:58;;;;;;;2.63;2.43;;;;;;;19.41;52.15;98222.31;4988487;28;20268;-25
2024/02/19 01:52:25;;;;;;;2.50;2.30;;;;;;;19.43;52.13;98236.00;4969533;28;20225;-26
2024/02/19 01:54:52;;;;;;;2.63;2.43;;;;;;;19.42;52.19;98224.03;4986604;28;20219;-25
2024/02/19 01:57:18;;;;;;;2.50;2.30;;;;;;;19.40;52.45;98225.66;4993804;28;20256;-25
2024/02/19 01:59:45;;;;;;;2.57;2.37;;;;;;;19.44;52.16;98226.66;4984093;28;20454;-25
2024/02/19 02:02:11;;;;;;;2.70;2.50;;;;;;;19.44;52.15;98232.66;5005411;28;20281;-26
2024/02/19 02:04:38;;;;;;;2.50;2.30;;;;;;;19.45;51.68;98236.94;4989145;28;20248;-25
2024/02/19 02:07:05;;;;;;;2.57;2.37;;;;;;;19.43;52.09;98217.28;4989342;28;20642;-25
2024/02/19 02:09:31;;;;;;;2.20;2.10;;;;;;;19.46;52.00;98214.88;4995751;28;20202;-29
2024/02/19 02:11:58;;;;;;;2.33;2.20;;;;;;;19.47;52.02;98196.22;4988461;28;20239;-25
2024/02/19 02:14:24;;;;;;;2.40;2.20;;;;;;;19.48;52.04;98190.34;5009259;28;20215;-25
2024/02/19 02:16:51;;;;;;;2.63;2.43;;;;;;;19.47;52.42;98189.47;5010067;28;20209;-25
2024/02/19 02:19:18;;;;;;;2.70;2.50;;;;;;;19.49;51.80;98192.09;5000811;28;20682;-25
2024/02/19 02:21:44;;;;;;;2.20;2.10;;;;;;;19.49;52.07;98200.63;5003471;28;20628;-25
2024/02/19 02:24:11;;;;;;;2.80;2.60;;;;;;;19.48;52.21;98196.31;5003211;28;20310;-25
2024/02/19 02:26:39;;;;;;;2.50;2.30;;;;;;;19.50;52.02;98198.91;5013259;28;20836;-25
2024/02/19 02:29:06;;;;;;;2.30;2.20;;;;;;;19.44;52.13;98193.53;5002569;28;20257;-25
2024/02/19 02:31:33;;;;;;;2.63;2.43;;;;;;;19.49;52.06;98202.28;5003823;28;20701;-25
2024/02/19 02:33:59;;;;;;;2.53;2.33;;;;;;;19.47;52.19;98198.78;5009924;28;20265;-29
2024/02/19 02:36:26;;;;;;;2.50;2.30;;;;;;;19.46;52.14;98200.47;5011132;28;20687;-25
2024/02/19 02:38:53;;;;;;;2.63;2.40;;;;;;;19.45;52.25;98201.25;4987620;28;20289;-25
2024/02/19 02:41:20;;;;;;;2.43;2.23;;;;;;;19.43;52.09;98200.31;5002255;28;20261;-25
2024/02/19 02:43:47;;;;;;;2.57;2.37;;;;;;;19.39;52.40;98207.75;5012483;28;20222;-25
2024/02/19 02:46:14;;;;;;;2.13;2.03;;;;;;;19.44;52.33;98219.91;4983540;28;20206;-25
2024/02/19 02:48:40;;;;;;;2.37;2.27;;;;;;;19.44;52.29;98211.38;4994189;28;20249;-25
2024/02/19 02:51:07;;;;;;;2.47;2.27;;;;;;;19.43;52.29;98213.06;5000772;28;20206;-25
2024/02/19 02:53:34;;;;;;;2.30;2.13;;;;;;;19.43;52.38;98214.72;5011532;28;20256;-26
2024/02/19 02:56:00;;;;;;;2.60;2.40;;;;;;;19.43;52.22;98224.94;5006321;28;20313;-25
2024/02/19 02:58:27;;;;;;;2.50;2.30;;;;;;;19.42;52.28;98218.94;5001313;28;20202;-25
2024/02/19 03:00:53;;;;;;;2.03;1.87;;;;;;;19.35;52.36;98204.16;5008568;28;20671;-26
2024/02/19 03:03:20;;;;;;;2.03;1.93;;;;;;;19.42;52.26;98218.09;5006991;28;20225;-25
2024/02/19 03:05:47;;;;;;;2.40;2.20;;;;;;;19.42;52.24;98218.09;5001317;28;20205;-25
2024/02/19 03:08:13;;;;;;;2.07;1.93;;;;;;;19.42;52.26;98207.91;5004218;28;20206;-25
2024/02/19 03:10:40;;;;;;;2.10;2.00;;;;;;;19.42;52.32;98206.19;5009886;28;20206;-26
2024/02/19 03:13:07;;;;;;;2.37;2.20;;;;;;;19.42;52.42;98205.34;4998811;28;20314;-25
2024/02/19 03:15:33;;;;;;;2.40;2.20;;;;;;;19.42;52.42;98203.66;5000612;28;20227;-25
2024/02/19 03:18:00;;;;;;;2.60;2.40;;;;;;;19.43;52.20;98207.97;5008573;28;20891;-25
2024/02/19 03:20:28;;;;;;;2.10;2.00;;;;;;;19.43;51.82;98207.09;4998327;28;20629;-25
2024/02/19 03:22:55;;;;;;;2.10;2.00;;;;;;;19.42;52.45;98205.34;5005251;28;20229;-25
2024/02/19 03:25:21;;;;;;;2.03;1.93;;;;;;;19.43;52.41;98207.09;5005897;28;20634;-25
2024/02/19 03:27:48;;;;;;;2.47;2.27;;;;;;;19.43;52.44;98205.44;5001621;28;20203;-25
2024/02/19 03:30:15;;;;;;;2.20;2.10;;;;;;;19.41;52.27;98199.38;5004078;28;20282;-25
2024/02/19 03:32:41;;;;;;;2.03;1.93;;;;;;;19.43;52.52;98202.88;5001047;28;20234;-25
2024/02/19 03:35:08;;;;;;;2.17;2.00;;;;;;;19.42;52.32;98198.56;5003667;28;20276;-25
2024/02/19 03:37:35;;;;;;;2.10;2.00;;;;;;;19.46;52.38;98199.59;4985633;28;20198;-26
2024/02/19 03:40:06;;;;;;;2.13;2.03;;;;;;;19.43;52.40;98191.78;5008341;28;20641;-25
2024/02/19 03:42:33;;;;;;;2.00;1.90;;;;;;;19.44;52.51;98194.41;5000178;28;20220;-25
2024/02/19 03:45:01;;;;;;;2.20;2.10;;;;;;;19.43;52.37;98192.69;4999338;28;20202;-28
2024/02/19 03:47:27;;;;;;;2.40;2.20;;;;;;;19.45;52.23;98195.31;4981633;28;20230;-28
2024/02/19 03:49:54;;;;;;;2.30;2.10;;;;;;;19.44;52.34;98189.31;4995622;28;20282;-25
2024/02/19 03:52:20;;;;;;;2.57;2.37;;;;;;;19.44;52.28;98191.88;4996357;28;20409;-25
2024/02/19 03:54:47;;;;;;;2.40;2.20;;;;;;;19.45;52.20;98197.84;5004732;28;20658;-26
2024/02/19 03:57:14;;;;;;;2.33;2.13;;;;;;;19.43;52.35;98177.38;4998502;28;20254;-25
2024/02/19 03:59:40;;;;;;;2.23;2.03;;;;;;;19.44;52.31;98178.25;4999676;28;20202;-26
2024/02/19 04:02:07;;;;;;;2.50;2.30;;;;;;;19.45;52.32;98187.66;5004731;28;20198;-25
2024/02/19 04:04:34;;;;;;;2.30;2.10;;;;;;;19.45;52.84;98191.06;5005799;28;20476;-25
2024/02/19 04:07:00;;;;;;;2.20;2.10;;;;;;;19.45;52.14;98205.50;5001793;28;20665;-25
2024/02/19 04:09:27;;;;;;;1.97;1.87;;;;;;;19.45;52.22;98193.59;5000731;28;20203;-25
2024/02/19 04:11:54;;;;;;;2.10;1.90;;;;;;;19.45;52.31;98193.59;5006171;28;20199;-25
2024/02/19 04:14:20;;;;;;;2.00;1.90;;;;;;;19.46;52.52;98194.50;4995648;28;20226;-26
2024/02/19 04:16:49;;;;;;;1.90;1.80;;;;;;;19.46;52.23;98202.13;4992350;28;20243;-28
2024/02/19 04:19:17;;;;;;;1.90;1.80;;;;;;;19.45;52.61;98205.50;4993686;28;20202;-26
2024/02/19 04:21:44;;;;;;;2.10;2.00;;;;;;;19.45;52.43;98211.44;5003578;28;20375;-25
2024/02/19 04:24:12;;;;;;;2.30;2.20;;;;;;;19.47;52.29;98208.97;5003623;28;20221;-25
2024/02/19 04:26:39;;;;;;;2.40;2.20;;;;;;;19.46;52.19;98212.34;5003104;28;20229;-25
2024/02/19 04:29:05;;;;;;;1.90;1.80;;;;;;;19.46;51.62;98217.44;5005854;28;20201;-26
2024/02/19 04:31:32;;;;;;;2.37;2.17;;;;;;;19.46;52.39;98210.66;5000228;28;20233;-26
2024/02/19 04:33:59;;;;;;;1.97;1.87;;;;;;;19.45;52.33;98211.44;5006740;28;20222;-25
2024/02/19 04:36:26;;;;;;;2.13;1.93;;;;;;;19.46;52.44;98212.34;5000387;28;20222;-26
2024/02/19 04:38:52;;;;;;;2.13;2.03;;;;;;;19.46;52.48;98215.78;5004909;28;20249;-25
2024/02/19 04:41:19;;;;;;;1.90;1.80;;;;;;;19.45;52.25;98208.91;4997687;28;20234;-25
2024/02/19 04:43:45;;;;;;;2.13;2.00;;;;;;;19.45;52.40;98216.56;4997823;28;20376;-25
2024/02/19 04:46:12;;;;;;;1.90;1.80;;;;;;;19.46;52.32;98218.31;5001034;28;20277;-25
2024/02/19 04:48:39;;;;;;;2.10;2.00;;;;;;;19.46;52.15;98213.22;4998546;28;20603;-25
2024/02/19 04:51:05;;;;;;;1.90;1.80;;;;;;;19.45;52.26;98214.00;5003334;28;20534;-27
2024/02/19 04:53:32;;;;;;;1.90;1.80;;;;;;;19.45;52.24;98211.44;5004155;28;20760;-34
2024/02/19 04:55:59;;;;;;;2.30;2.10;;;;;;;19.46;52.32;98209.78;5005460;28;20700;-25
2024/02/19 04:58:25;;;;;;;1.93;1.83;;;;;;;19.47;52.23;98216.63;5001446;28;20202;-28
2024/02/19 05:00:52;;;;;;;2.23;2.03;;;;;;;19.47;51.95;98217.50;4993792;28;20560;-25
2024/02/19 05:03:19;;;;;;;1.70;1.60;;;;;;;19.50;52.73;98221.88;4994190;28;20214;-25
2024/02/19 05:05:45;;;;;;;1.90;1.80;;;;;;;19.50;52.21;98224.41;5006235;28;20202;-25
2024/02/19 05:08:12;;;;;;;2.13;2.03;;;;;;;19.50;52.24;98222.75;4993178;28;20629;-25
2024/02/19 05:10:38;;;;;;;2.00;1.90;;;;;;;19.53;52.09;98220.34;4997798;28;20685;-25
2024/02/19 05:13:05;;;;;;;2.13;2.00;;;;;;;19.54;52.41;98223.78;5017314;23;20609;-28
2024/02/19 05:15:32;;;;;;;1.93;1.80;;;;;;;19.55;51.91;98233.16;4990104;28;20602;-30
2024/02/19 05:17:58;;;;;;;2.00;1.90;;;;;;;19.56;52.14;98227.25;4988961;28;20198;-25
2024/02/19 05:20:25;;;;;;;1.80;1.70;;;;;;;19.55;52.20;98228.97;4985808;28;20207;-25
2024/02/19 05:22:51;;;;;;;1.87;1.77;;;;;;;19.54;52.21;98224.63;4983214;28;20234;-27
2024/02/19 05:25:18;;;;;;;1.70;1.60;;;;;;;19.54;52.23;98229.72;4983609;28;20204;-25
2024/02/19 05:27:45;;;;;;;1.90;1.80;;;;;;;19.53;52.15;98216.91;4979719;28;20285;-25
2024/02/19 05:30:16;;;;;;;1.90;1.80;;;;;;;19.53;52.29;98222.00;4985888;28;20215;-34
2024/02/19 05:32:42;;;;;;;1.80;1.70;;;;;;;19.52;52.18;98231.34;4987546;28;20213;-25
2024/02/19 05:35:09;;;;;;;1.80;1.70;;;;;;;19.51;52.12;98229.59;4982733;28;20306;-25
2024/02/19 05:37:36;;;;;;;1.93;1.83;;;;;;;19.51;52.29;98236.38;4985068;28;20204;-26
2024/02/19 05:40:03;;;;;;;1.70;1.60;;;;;;;19.51;52.38;98232.13;4980537;28;20674;-25
2024/02/19 05:42:29;;;;;;;1.80;1.70;;;;;;;19.51;52.17;98228.75;4989620;28;20555;-26
2024/02/19 05:44:56;;;;;;;1.90;1.80;;;;;;;19.50;52.39;98237.16;4991729;28;20300;-28
2024/02/19 05:47:23;;;;;;;1.80;1.70;;;;;;;19.50;52.30;98232.06;4987063;28;20234;-25
2024/02/19 05:49:50;;;;;;;1.83;1.73;;;;;;;19.50;52.25;98225.31;4989334;28;20203;-25
2024/02/19 05:52:17;;;;;;;2.70;2.00;;;;;;;19.51;52.21;98227.03;4992579;28;20210;-27
2024/02/19 05:54:46;;;;;;;1.90;1.80;;;;;;;19.52;52.36;98228.81;4982967;28;20703;-25
2024/02/19 05:57:14;;;;;;;2.43;1.90;;;;;;;19.54;52.19;98228.88;4979474;28;20222;-27
2024/02/19 05:59:40;;;;;;;2.17;1.90;;;;;;;19.53;52.08;98224.56;4986191;28;20203;-25
2024/02/19 06:02:07;;;;;;;2.47;1.90;;;;;;;19.54;52.16;98227.19;4985896;28;20203;-28
2024/02/19 06:04:33;;;;;;;2.73;1.80;;;;;;;19.53;52.07;98222.91;4988675;28;20661;-25
2024/02/19 06:07:01;;;;;;;5.93;1.90;;;;;;;19.52;52.27;98225.38;4979407;28;20265;-25
2024/02/19 06:09:28;;;;;;;2.63;1.97;;;;;;;19.50;51.96;98225.31;4983537;28;20226;-26
2024/02/19 06:11:55;;;;;;;2.30;2.00;;;;;;;19.50;52.18;98232.06;4981779;28;20273;-25
2024/02/19 06:14:22;;;;;;;5.63;2.30;;;;;;;19.50;52.26;98229.50;4988262;28;20224;-31
2024/02/19 06:16:48;;;;;;;2.03;1.70;;;;;;;19.49;52.32;98227.78;4987197;28;20221;-25
2024/02/19 06:19:16;;;;;;;2.00;1.80;;;;;;;19.50;52.34;98219.31;4986618;28;20207;-25
2024/02/19 06:21:43;;;;;;;2.13;1.80;;;;;;;19.49;52.15;98217.59;4981099;28;20261;-25
2024/02/19 06:24:10;;;;;;;7.70;2.27;;;;;;;19.49;52.20;98225.22;4986149;28;20302;-25
2024/02/19 06:26:37;;;;;;;2.20;1.87;;;;;;;19.48;52.19;98232.00;4975601;28;20227;-25
2024/02/19 06:29:03;;;;;;;1.63;1.53;;;;;;;19.49;52.41;98248.16;4981663;28;20203;-25
2024/02/19 06:31:30;;;;;;;2.80;1.97;;;;;;;19.47;52.09;98248.09;4983642;28;20227;-27
2024/02/19 06:33:57;;;;;;;2.20;1.80;;;;;;;19.49;52.33;98248.16;4985753;28;20223;-25
2024/02/19 06:36:24;;;;;;;2.00;1.80;;;;;;;19.50;52.10;98257.56;4979100;28;20363;-28
2024/02/19 06:38:50;;;;;;;1.80;1.70;;;;;;;19.51;52.07;98259.34;4981692;28;20203;-28
2024/02/19 06:41:17;;;;;;;5.53;1.60;;;;;;;19.52;52.09;98261.97;4990307;28;20207;-25
2024/02/19 06:43:44;;;;;;;1.90;1.70;;;;;;;19.52;52.02;98264.50;4985505;28;20226;-25
2024/02/19 06:46:11;;;;;;;2.70;1.70;;;;;;;19.53;52.32;98279.00;4981451;28;20222;-25
2024/02/19 06:48:39;;;;;;;3.57;1.50;;;;;;;19.52;52.20;98278.91;4993116;28;20238;-25
2024/02/19 06:51:06;;;;;;;2.63;1.83;;;;;;;19.53;52.23;98283.19;4987056;28;20210;-25
2024/02/19 06:53:33;;;;;;;1.90;1.80;;;;;;;19.51;52.13;98284.81;4988823;28;20251;-25
2024/02/19 06:56:00;;;;;;;1.77;1.63;;;;;;;19.51;52.24;98285.69;4986708;28;20310;-26
2024/02/19 06:58:26;;;;;;;1.87;1.77;;;;;;;19.52;51.45;98289.13;4992105;28;20195;-26
2024/02/19 07:00:53;;;;;;;1.90;1.70;;;;;;;19.51;51.21;98283.13;4992562;28;20627;-25
2024/02/19 07:03:20;;;;;;;2.57;1.97;;;;;;;19.50;50.72;98280.50;4983097;28;20273;-25
2024/02/19 07:05:47;;;;;;;4.70;2.10;;;;;;;19.49;51.08;98284.75;4977019;28;20199;-25
2024/02/19 07:08:14;;;;;;;2.17;1.90;;;;;;;19.46;51.14;98283.72;4977153;28;20653;-26
2024/02/19 07:10:41;;;;;;;1.90;1.70;;;;;;;19.45;51.78;98279.44;4983365;28;20235;-25
2024/02/19 07:13:07;;;;;;;1.73;1.63;;;;;;;19.44;51.37;98286.19;4982504;28;20719;-25
2024/02/19 07:15:34;;;;;;;3.10;1.90;;;;;;;19.45;51.68;98292.16;4981449;28;20223;-27
2024/02/19 07:18:01;;;;;;;1.97;1.80;;;;;;;19.45;51.74;98289.63;4989972;28;20689;-27
2024/02/19 07:20:27;;;;;;;1.77;1.67;;;;;;;19.45;51.87;98294.72;4998621;28;20207;-28
2024/02/19 07:22:54;;;;;;;2.07;1.70;;;;;;;19.43;51.95;98304.84;4980054;28;20694;-25
2024/02/19 07:25:20;;;;;;;3.63;1.80;;;;;;;19.42;52.43;98297.97;4980169;28;20283;-27
2024/02/19 07:27:48;;;;;;;1.70;1.60;;;;;;;19.42;52.10;98312.41;4992589;28;20203;-27
2024/02/19 07:30:15;;;;;;;1.80;1.70;;;;;;;19.41;52.20;98311.53;4998084;28;20666;-27
2024/02/19 07:32:42;;;;;;;2.23;2.00;;;;;;;19.42;52.29;98312.41;4994650;28;20300;-30
2024/02/19 07:35:09;;;;;;;1.80;1.70;;;;;;;19.42;52.20;98320.06;4983993;28;20230;-27
2024/02/19 07:37:36;;;;;;;2.40;1.70;;;;;;;19.41;51.82;98319.16;4983182;28;20227;-25
2024/02/19 07:40:04;;;;;;;1.80;1.70;;;;;;;19.41;52.10;98318.28;4989287;28;20219;-25
2024/02/19 07:42:31;;;;;;;1.87;1.77;;;;;;;19.42;51.74;98315.81;4985395;28;20207;-30
2024/02/19 07:44:57;;;;;;;1.70;1.60;;;;;;;19.42;52.27;98320.91;4986845;28;20231;-25
2024/02/19 07:47:24;;;;;;;1.73;1.63;;;;;;;19.43;52.05;98321.81;4988903;28;20206;-27
2024/02/19 07:49:51;;;;;;;2.80;1.80;;;;;;;19.43;52.34;98319.25;4994096;28;20214;-25
2024/02/19 07:52:17;;;;;;;3.13;1.70;;;;;;;19.43;52.32;98327.78;4976629;28;20214;-28
2024/02/19 07:54:44;;;;;;;2.90;1.70;;;;;;;19.41;52.25;98331.91;4984396;28;20266;-28
2024/02/19 07:57:11;;;;;;;3.07;1.57;;;;;;;19.41;52.29;98325.94;4980458;28;20231;-25
2024/02/19 07:59:38;;;;;;;1.60;1.50;;;;;;;19.39;52.28;98328.41;4984746;28;20211;-34
2024/02/19 08:02:06;;;;;;;1.77;1.67;;;;;;;19.39;52.31;98328.41;4979307;28;20215;-27
2024/02/19 08:04:33;;;;;;;1.70;1.60;;;;;;;19.41;52.15;98338.69;4984209;28;20582;-26
2024/02/19 08:07:00;;;;;;;1.87;1.70;;;;;;;19.39;52.18;98336.06;4961268;28;20677;-25
2024/02/19 08:09:27;;;;;;;1.80;1.67;;;;;;;19.39;52.37;98345.41;4984575;28;20207;-25
2024/02/19 08:11:57;;;;;;;1.77;1.67;;;;;;;19.40;52.45;98365.88;4979447;28;20502;-26
2024/02/19 08:14:26;;;;;;;1.60;1.50;;;;;;;19.41;52.36;98348.88;4981802;28;20339;-27
2024/02/19 08:16:53;;;;;;;1.63;1.53;;;;;;;19.41;52.37;98348.88;4986937;28;20244;-25
2024/02/19 08:19:20;;;;;;;2.40;1.73;;;;;;;19.42;52.21;98353.19;4979417;28;20199;-29
2024/02/19 08:21:48;;;;;;;1.80;1.50;;;;;;;19.42;52.44;98350.66;4988539;28;20207;-26
2024/02/19 08:24:15;;;;;;;1.77;1.67;;;;;;;19.41;52.35;98354.84;4976335;28;20232;-28
2024/02/19 08:26:41;;;;;;;2.00;1.80;;;;;;;19.41;52.10;98353.97;4974749;28;20234;-28
2024/02/19 08:29:08;;;;;;;1.60;1.50;;;;;;;19.39;52.29;98359.00;4980224;28;20210;-25
2024/02/19 08:31:34;;;;;;;1.90;1.73;;;;;;;19.39;52.37;98364.09;4981581;28;20215;-28
2024/02/19 08:34:01;;;;;;;1.93;1.73;;;;;;;19.40;52.72;98370.97;4973207;28;20266;-28
2024/02/19 08:36:28;;;;;;;1.70;1.60;;;;;;;19.39;52.63;98369.19;4974533;28;20228;-25
2024/02/19 08:38:55;;;;;;;2.10;1.70;;;;;;;19.38;52.48;98364.91;4971090;28;20667;-25
2024/02/19 08:41:22;;;;;;;1.73;1.60;;;;;;;19.39;51.99;98371.75;4982835;28;20207;-25
2024/02/19 08:43:48;;;;;;;1.60;1.50;;;;;;;19.40;52.43;98377.72;4977389;28;20263;-25
2024/02/19 08:46:15;;;;;;;1.50;1.40;;;;;;;19.41;52.20;98374.38;4982671;28;20686;-26
2024/02/19 08:48:42;;;;;;;1.70;1.60;;;;;;;19.43;52.31;98382.97;4975196;28;20216;-27
2024/02/19 08:51:09;;;;;;;1.63;1.50;;;;;;;19.44;52.86;98377.06;4978792;28;20247;-25
2024/02/19 08:53:35;;;;;;;1.70;1.60;;;;;;;19.45;52.37;98382.25;4983284;28;20230;-29
2024/02/19 08:56:02;;;;;;;1.70;1.60;;;;;;;19.46;52.29;98385.69;4985008;28;20281;-26
2024/02/19 08:58:30;;;;;;;1.50;1.40;;;;;;;19.46;52.34;98395.88;4981396;28;20265;-25
2024/02/19 09:00:59;;;;;;;1.77;1.60;;;;;;;19.45;52.40;98392.44;4983659;28;20215;-28
2024/02/19 09:03:26;;;;;;;2.30;1.53;;;;;;;19.46;52.73;98390.78;4979125;28;20756;-27
2024/02/19 09:05:53;;;;;;;2.03;1.50;;;;;;;19.45;52.28;98395.00;4975736;28;20730;-25
2024/02/19 09:08:19;;;;;;;1.60;1.50;;;;;;;19.44;52.52;98397.47;4962024;28;20203;-27
2024/02/19 09:10:46;;;;;;;2.37;1.67;;;;;;;19.44;52.46;98397.47;4980669;28;20211;-27
2024/02/19 09:13:12;;;;;;;1.60;1.50;;;;;;;19.42;52.46;98394.84;4982424;28;20678;-26
2024/02/19 09:15:39;;;;;;;1.73;1.60;;;;;;;19.41;52.39;98395.66;4979425;28;20326;-26
2024/02/19 09:18:06;;;;;;;1.60;1.47;;;;;;;19.41;52.57;98403.28;4986553;28;20593;-26
2024/02/19 09:20:33;;;;;;;1.40;1.30;;;;;;;19.42;52.49;98407.59;4978163;28;20434;-25
2024/02/19 09:23:01;;;;;;;1.73;1.63;;;;;;;19.40;52.50;98410.84;4991420;28;20207;-26
2024/02/19 09:25:28;;;;;;;1.60;1.50;;;;;;;19.43;52.41;98414.47;4963867;28;20211;-26
2024/02/19 09:27:55;;;;;;;1.50;1.40;;;;;;;19.44;52.31;98415.31;4981021;28;20211;-26
2024/02/19 09:30:22;;;;;;;1.77;1.50;;;;;;;19.45;52.50;98417.09;4956265;28;20207;-27
2024/02/19 09:32:48;;;;;;;1.50;1.40;;;;;;;19.45;52.40;98417.09;4988182;28;20501;-28
2024/02/19 09:35:18;;;;;;;1.77;1.50;;;;;;;19.44;52.61;98416.19;4979864;28;20259;-25
2024/02/19 09:37:44;;;;;;;1.83;1.50;;;;;;;19.43;52.60;98418.66;4986774;28;20703;-26
2024/02/19 09:40:12;;;;;;;1.43;1.33;;;;;;;19.38;52.61;98413.34;4953716;28;20270;-26
2024/02/19 09:42:39;;;;;;;1.50;1.40;;;;;;;19.43;52.57;98426.31;4961534;28;20203;-25
2024/02/19 09:45:07;;;;;;;2.33;1.60;;;;;;;19.42;52.63;98429.66;4988176;28;20326;-27
2024/02/19 09:47:33;;;;;;;1.67;1.57;;;;;;;19.14;51.89;98368.72;4963049;28;20283;-26
2024/02/19 09:50:00;;;;;;;1.87;1.77;;;;;;;19.33;52.53;98404.56;4960840;28;20250;-34
2024/02/19 09:52:27;;;;;;;1.73;1.43;;;;;;;19.38;52.99;98413.34;4950936;28;20726;-31
2024/02/19 09:54:56;;;;;;;1.93;1.60;;;;;;;19.40;52.54;98432.13;4951591;28;20379;-28
2024/02/19 09:57:25;;;;;;;1.53;1.43;;;;;;;19.41;52.46;98433.00;4958124;28;20226;-26
2024/02/19 09:59:51;;;;;;;1.60;1.50;;;;;;;19.34;52.49;98413.09;4983864;28;20211;-25
2024/02/19 10:02:18;;;;;;;1.50;1.40;;;;;;;19.43;52.51;98432.31;4954464;28;20203;-30
2024/02/19 10:04:46;;;;;;;1.70;1.43;;;;;;;19.44;52.43;98441.69;4981745;28;20224;-26
2024/02/19 10:07:18;;;;;;;2.70;1.50;;;;;;;19.43;52.53;98442.50;4985813;28;20249;-28
2024/02/19 10:09:46;;;;;;;1.67;1.57;;;;;;;19.44;52.57;98441.69;4986947;28;20220;-26
2024/02/19 10:12:13;;;;;;;1.60;1.50;;;;;;;19.43;52.61;98439.94;4984744;28;20643;-26
2024/02/19 10:14:39;;;;;;;1.93;1.63;;;;;;;19.44;52.54;98435.69;4981643;28;20290;-26
2024/02/19 10:17:06;;;;;;;1.73;1.60;;;;;;;19.42;52.59;98429.66;4984032;28;20296;-25
2024/02/19 10:19:33;;;;;;;1.70;1.60;;;;;;;19.43;52.27;98428.88;4967505;28;20246;-28
2024/02/19 10:22:00;;;;;;;1.50;1.40;;;;;;;19.41;52.52;98428.78;4989024;28;20427;-25
2024/02/19 10:24:26;;;;;;;1.50;1.40;;;;;;;19.43;52.79;98433.97;4985986;28;20690;-25
2024/02/19 10:26:53;;;;;;;1.50;1.40;;;;;;;19.36;52.60;98429.34;4984819;28;20626;-25
2024/02/19 10:29:21;;;;;;;1.53;1.43;;;;;;;19.41;52.60;98436.44;4981019;28;20206;-26
2024/02/19 10:31:48;;;;;;;1.83;1.40;;;;;;;19.40;52.65;98433.81;4972103;28;20583;-27
2024/02/19 10:34:16;;;;;;;1.50;1.40;;;;;;;19.41;52.46;98443.19;4977645;28;20282;-27
2024/02/19 10:36:44;;;;;;;2.20;1.67;;;;;;;19.32;52.54;98428.31;4975694;28;20234;-28
2024/02/19 10:39:12;;;;;;;1.47;1.37;;;;;;;19.41;52.67;98448.28;4967594;28;20224;-25
2024/02/19 10:41:38;;;;;;;1.40;1.30;;;;;;;19.40;52.72;98447.44;4954833;28;20239;-26
2024/02/19 10:44:05;;;;;;;1.40;1.30;;;;;;;19.41;52.60;98450.84;4979233;28;20233;-25
2024/02/19 10:46:32;;;;;;;1.50;1.40;;;;;;;19.41;52.33;98453.38;4977376;28;20207;-27
2024/02/19 10:48:59;;;;;;;1.40;1.30;;;;;;;19.41;52.53;98458.50;4967732;28;20217;-25
2024/02/19 10:51:25;;;;;;;1.80;1.47;;;;;;;19.41;52.02;98458.50;4979803;28;20301;-28
2024/02/19 10:54:03;;;;;;;1.67;1.57;;;;;;;19.40;52.52;98465.28;4951579;28;20235;-27
2024/02/19 10:56:37;;;;;;;1.60;1.50;;;;;;;19.41;52.69;98471.22;4983814;28;20590;-25
2024/02/19 10:59:04;;;;;;;1.50;1.40;;;;;;;19.42;52.60;98463.66;4977662;28;20239;-25
2024/02/19 11:01:41;;;;;;;1.60;1.50;;;;;;;19.44;52.75;98471.41;4960832;28;20239;-27
2024/02/19 11:04:11;;;;;;;1.73;1.33;;;;;;;19.44;52.42;98456.09;4979008;28;20222;-31
2024/02/19 11:06:52;;;;;;;1.57;1.47;;;;;;;19.43;52.64;98450.16;4987779;28;20207;-29
2024/02/19 11:09:26;;;;;;;1.50;1.40;;;;;;;19.44;52.73;98448.44;4984716;28;20207;-29
2024/02/19 11:11:57;;;;;;;1.53;1.33;;;;;;;19.43;52.73;98450.16;4981116;28;20214;-26
2024/02/19 11:14:28;;;;;;;1.23;1.20;;;;;;;19.43;52.57;98446.72;5009822;23;20275;-30
2024/02/19 11:16:56;;;;;;;1.50;1.40;;;;;;;19.45;52.31;98453.63;5020081;28;20320;-26
2024/02/19 11:19:23;;;;;;;1.50;1.40;;;;;;;19.45;52.40;98448.53;5027029;28;20225;-27
2024/02/19 11:21:49;;;;;;;1.50;1.40;;;;;;;19.46;52.49;98445.19;5020019;28;20557;-28
2024/02/19 11:24:16;;;;;;;2.07;1.50;;;;;;;19.46;52.61;98442.66;5031859;28;20283;-25
2024/02/19 11:26:43;;;;;;;1.50;1.40;;;;;;;19.49;52.52;98436.81;5040348;28;20208;-26
2024/02/19 11:29:17;;;;;;;1.63;1.40;;;;;;;19.47;52.59;98462.25;5039991;28;20796;-25
2024/02/19 11:31:44;;;;;;;1.33;1.23;;;;;;;19.47;52.64;98448.59;5040306;28;20212;-27
2024/02/19 11:34:17;;;;;;;1.40;1.30;;;;;;;19.46;52.52;98460.50;5046594;28;20286;-28